TPC2112 KAVO-KLAL
Flight info
| Callsign | TPC2112 |
|---|---|
| Flight time | N/A |
| Altitude | 4500 |
| Route | KISM KLEE FL42 FA08 |
| Aircraft | CC19/L-V/N |
Departure
| Time | 2026-04-22 00:15 |
|---|---|
| Airport | Avon Park Executive Airport (KAVO) |
Arrival
| Time | N/A |
|---|---|
| Airport | Lakeland Linder International Airport (KLAL) |
| Time | Latitude | Longitude | Altitude | Speed | Heading |
|---|---|---|---|---|---|
| 2026-04-22 00:00 | 27.59433 | -81.52629 | 160 ft | 0 kts | 68° |
| 2026-04-22 00:12 | 27.59430 | -81.52616 | 160 ft | 4 kts | 120° |
| 2026-04-22 00:13 | 27.59421 | -81.52570 | 160 ft | 6 kts | 92° |
| 2026-04-22 00:13 | 27.59421 | -81.52555 | 160 ft | 0 kts | 89° |
| 2026-04-22 00:13 | 27.59421 | -81.52547 | 160 ft | 3 kts | 85° |
| 2026-04-22 00:13 | 27.59400 | -81.52515 | 161 ft | 7 kts | 168° |
| 2026-04-22 00:14 | 27.59351 | -81.52536 | 162 ft | 16 kts | 264° |
| 2026-04-22 00:14 | 27.59357 | -81.52794 | 159 ft | 65 kts | 268° |
| 2026-04-22 00:14 | 27.59335 | -81.53459 | 316 ft | 100 kts | 271° |
| 2026-04-22 00:14 | 27.59270 | -81.54302 | 619 ft | 107 kts | 256° |
| 2026-04-22 00:15 | 27.59213 | -81.55244 | 735 ft | 125 kts | 271° |
| 2026-04-22 00:15 | 27.59426 | -81.56171 | 943 ft | 118 kts | 314° |
| 2026-04-22 00:15 | 27.60074 | -81.56478 | 1100 ft | 95 kts | 18° |
| 2026-04-22 00:15 | 27.60649 | -81.56146 | 1273 ft | 91 kts | 47° |
| 2026-04-22 00:16 | 27.61021 | -81.55604 | 1473 ft | 87 kts | 65° |
| 2026-04-22 00:16 | 27.61234 | -81.54977 | 1679 ft | 86 kts | 72° |
| 2026-04-22 00:16 | 27.61586 | -81.54405 | 1785 ft | 95 kts | 44° |
| 2026-04-22 00:16 | 27.62242 | -81.54139 | 1898 ft | 105 kts | 15° |
| 2026-04-22 00:17 | 27.62975 | -81.54039 | 2070 ft | 105 kts | 18° |
| 2026-04-22 00:17 | 27.63694 | -81.53949 | 2167 ft | 104 kts | 21° |
| 2026-04-22 00:17 | 27.64406 | -81.53803 | 2230 ft | 105 kts | 21° |
| 2026-04-22 00:17 | 27.65123 | -81.53646 | 2336 ft | 109 kts | 22° |
| 2026-04-22 00:18 | 27.65868 | -81.53465 | 2427 ft | 108 kts | 24° |
| 2026-04-22 00:18 | 27.66594 | -81.53326 | 2526 ft | 104 kts | 21° |
| 2026-04-22 00:18 | 27.67303 | -81.53200 | 2624 ft | 103 kts | 21° |
| 2026-04-22 00:18 | 27.68018 | -81.53066 | 2728 ft | 104 kts | 21° |
| 2026-04-22 00:19 | 27.68737 | -81.52887 | 2828 ft | 107 kts | 22° |
| 2026-04-22 00:19 | 27.69464 | -81.52719 | 2930 ft | 107 kts | 21° |
| 2026-04-22 00:19 | 27.70195 | -81.52550 | 3020 ft | 104 kts | 30° |
| 2026-04-22 00:19 | 27.70684 | -81.52025 | 3130 ft | 98 kts | 53° |
| 2026-04-22 00:20 | 27.71249 | -81.51534 | 3239 ft | 107 kts | 38° |
| 2026-04-22 00:20 | 27.71994 | -81.51309 | 3341 ft | 114 kts | 18° |
| 2026-04-22 00:20 | 27.72770 | -81.51169 | 3440 ft | 112 kts | 18° |
| 2026-04-22 00:20 | 27.73549 | -81.51048 | 3531 ft | 114 kts | 18° |
| 2026-04-22 00:21 | 27.74329 | -81.50938 | 3635 ft | 113 kts | 16° |
| 2026-04-22 00:21 | 27.75112 | -81.50833 | 3728 ft | 113 kts | 17° |
| 2026-04-22 00:21 | 27.75896 | -81.50724 | 3831 ft | 114 kts | 17° |
| 2026-04-22 00:21 | 27.76686 | -81.50620 | 3927 ft | 115 kts | 16° |
| 2026-04-22 00:22 | 27.77471 | -81.50519 | 4028 ft | 113 kts | 16° |
| 2026-04-22 00:22 | 27.78267 | -81.50416 | 4132 ft | 116 kts | 15° |
| 2026-04-22 00:22 | 27.79067 | -81.50312 | 4230 ft | 116 kts | 17° |
| 2026-04-22 00:22 | 27.79867 | -81.50207 | 4330 ft | 115 kts | 17° |
| 2026-04-22 00:23 | 27.80662 | -81.50102 | 4422 ft | 114 kts | 15° |
| 2026-04-22 00:23 | 27.81452 | -81.49998 | 4468 ft | 116 kts | 14° |
| 2026-04-22 00:23 | 27.82253 | -81.49886 | 4477 ft | 119 kts | 17° |
| 2026-04-22 00:23 | 27.83094 | -81.49779 | 4480 ft | 123 kts | 16° |
| 2026-04-22 00:24 | 27.83942 | -81.49670 | 4479 ft | 122 kts | 15° |
| 2026-04-22 00:24 | 27.84781 | -81.49561 | 4474 ft | 118 kts | 16° |
| 2026-04-22 00:24 | 27.85592 | -81.49455 | 4472 ft | 117 kts | 17° |
| 2026-04-22 00:24 | 27.86404 | -81.49348 | 4474 ft | 117 kts | 17° |
| 2026-04-22 00:25 | 27.87217 | -81.49241 | 4480 ft | 117 kts | 15° |
| 2026-04-22 00:25 | 27.88012 | -81.49133 | 4472 ft | 116 kts | 14° |
| 2026-04-22 00:25 | 27.88833 | -81.49026 | 4478 ft | 120 kts | 15° |
| 2026-04-22 00:25 | 27.89662 | -81.48919 | 4477 ft | 120 kts | 17° |
| 2026-04-22 00:26 | 27.90488 | -81.48812 | 4477 ft | 118 kts | 17° |
| 2026-04-22 00:26 | 27.91306 | -81.48705 | 4483 ft | 119 kts | 15° |
| 2026-04-22 00:26 | 27.92132 | -81.48595 | 4479 ft | 120 kts | 15° |
| 2026-04-22 00:26 | 27.92958 | -81.48487 | 4487 ft | 119 kts | 15° |
| 2026-04-22 00:27 | 27.93782 | -81.48381 | 4483 ft | 119 kts | 17° |
| 2026-04-22 00:27 | 27.94605 | -81.48267 | 4486 ft | 120 kts | 15° |
| 2026-04-22 00:27 | 27.95425 | -81.48160 | 4487 ft | 119 kts | 15° |
| 2026-04-22 00:27 | 27.96240 | -81.48056 | 4480 ft | 116 kts | 16° |
| 2026-04-22 00:28 | 27.97044 | -81.47950 | 4480 ft | 116 kts | 16° |
| 2026-04-22 00:28 | 27.97845 | -81.47843 | 4483 ft | 117 kts | 15° |
| 2026-04-22 00:28 | 27.98660 | -81.47734 | 4490 ft | 118 kts | 14° |
| 2026-04-22 00:28 | 27.99481 | -81.47626 | 4473 ft | 118 kts | 15° |
| 2026-04-22 00:29 | 28.00285 | -81.47522 | 4486 ft | 116 kts | 17° |
| 2026-04-22 00:29 | 28.01085 | -81.47417 | 4485 ft | 115 kts | 17° |
| 2026-04-22 00:29 | 28.01877 | -81.47312 | 4484 ft | 114 kts | 17° |